Elgoibar, Spain
Current Conditions -  °F | °C
As of 2:30 PM on Friday 24 Oct 2014 (Local Time) from LEBB Reporting Station
Clear Clear  
Wind Chill: 81°   Ceiling: Unl
Heat Index: 81°   Visibility: 6mi
Dew Point: 48°   Wind: 5mph
Humidity: 32%   Direction: 310°NW
Pressure: 30.09"   Gusts: NA
Location:  43.22°N, 2.41°W
Report Text: LEBB 241230Z 31004KT 260V330 9000 NSC 27/09 Q1019 NOSIG
Loading
Personal Weather Stations






























Interactive Weather Map New forecast layout! Learn more

10-Day Weather Forecast

Advertisements
Track Severe Weather on mobile